sensor_id;sensor_type;location;lat;lon;timestamp;P1;durP1;ratioP1;P2;durP2;ratioP2
21036;SDS011;10677;50.942;4.028;2022-11-28T00:01:14;6.55;;;3.83;;
21036;SDS011;10677;50.942;4.028;2022-11-28T00:03:57;8.25;;;3.80;;
21036;SDS011;10677;50.942;4.028;2022-11-28T00:06:23;8.40;;;4.45;;
21036;SDS011;10677;50.942;4.028;2022-11-28T00:08:50;8.40;;;4.35;;
21036;SDS011;10677;50.942;4.028;2022-11-28T00:11:16;8.55;;;4.57;;
21036;SDS011;10677;50.942;4.028;2022-11-28T00:13:43;6.80;;;3.97;;
21036;SDS011;10677;50.942;4.028;2022-11-28T00:16:12;8.00;;;4.47;;
21036;SDS011;10677;50.942;4.028;2022-11-28T00:18:40;9.48;;;4.35;;
21036;SDS011;10677;50.942;4.028;2022-11-28T00:21:07;7.90;;;4.03;;
21036;SDS011;10677;50.942;4.028;2022-11-28T00:23:35;8.18;;;4.00;;
21036;SDS011;10677;50.942;4.028;2022-11-28T00:26:02;10.27;;;4.22;;
21036;SDS011;10677;50.942;4.028;2022-11-28T00:28:30;7.57;;;4.10;;
21036;SDS011;10677;50.942;4.028;2022-11-28T00:30:56;8.35;;;4.93;;
21036;SDS011;10677;50.942;4.028;2022-11-28T00:33:22;6.53;;;4.10;;
21036;SDS011;10677;50.942;4.028;2022-11-28T00:35:48;6.90;;;4.22;;
21036;SDS011;10677;50.942;4.028;2022-11-28T00:38:13;9.10;;;5.03;;
21036;SDS011;10677;50.942;4.028;2022-11-28T00:40:39;7.93;;;4.70;;
21036;SDS011;10677;50.942;4.028;2022-11-28T00:43:05;8.07;;;4.95;;
21036;SDS011;10677;50.942;4.028;2022-11-28T00:45:31;8.13;;;4.95;;
21036;SDS011;10677;50.942;4.028;2022-11-28T00:47:56;9.88;;;5.53;;
21036;SDS011;10677;50.942;4.028;2022-11-28T00:50:22;7.88;;;5.03;;
21036;SDS011;10677;50.942;4.028;2022-11-28T00:52:48;9.45;;;4.95;;
21036;SDS011;10677;50.942;4.028;2022-11-28T00:55:14;9.40;;;5.10;;
21036;SDS011;10677;50.942;4.028;2022-11-28T00:57:40;10.90;;;5.30;;
21036;SDS011;10677;50.942;4.028;2022-11-28T01:00:07;8.20;;;4.80;;
21036;SDS011;10677;50.942;4.028;2022-11-28T01:02:34;10.27;;;5.60;;
21036;SDS011;10677;50.942;4.028;2022-11-28T01:05:00;9.27;;;5.13;;
21036;SDS011;10677;50.942;4.028;2022-11-28T01:07:26;8.48;;;5.38;;
21036;SDS011;10677;50.942;4.028;2022-11-28T01:09:53;10.63;;;5.22;;
21036;SDS011;10677;50.942;4.028;2022-11-28T01:12:19;10.02;;;5.95;;
21036;SDS011;10677;50.942;4.028;2022-11-28T01:14:44;9.98;;;5.82;;
21036;SDS011;10677;50.942;4.028;2022-11-28T01:17:10;10.23;;;5.40;;
21036;SDS011;10677;50.942;4.028;2022-11-28T01:19:36;9.52;;;5.80;;
21036;SDS011;10677;50.942;4.028;2022-11-28T01:22:02;10.77;;;5.63;;
21036;SDS011;10677;50.942;4.028;2022-11-28T01:24:30;7.93;;;5.10;;
21036;SDS011;10677;50.942;4.028;2022-11-28T01:26:56;10.20;;;5.93;;
21036;SDS011;10677;50.942;4.028;2022-11-28T01:29:22;12.20;;;6.18;;
21036;SDS011;10677;50.942;4.028;2022-11-28T01:31:48;10.38;;;6.22;;
21036;SDS011;10677;50.942;4.028;2022-11-28T01:34:13;11.25;;;5.50;;
21036;SDS011;10677;50.942;4.028;2022-11-28T01:36:39;10.77;;;5.50;;
21036;SDS011;10677;50.942;4.028;2022-11-28T01:39:05;10.00;;;6.13;;
21036;SDS011;10677;50.942;4.028;2022-11-28T01:41:31;10.52;;;6.03;;
21036;SDS011;10677;50.942;4.028;2022-11-28T01:46:30;9.73;;;5.72;;
21036;SDS011;10677;50.942;4.028;2022-11-28T01:48:58;9.32;;;6.30;;
21036;SDS011;10677;50.942;4.028;2022-11-28T01:51:28;10.93;;;6.45;;
21036;SDS011;10677;50.942;4.028;2022-11-28T01:53:55;9.48;;;6.38;;
21036;SDS011;10677;50.942;4.028;2022-11-28T01:56:25;8.63;;;5.53;;
21036;SDS011;10677;50.942;4.028;2022-11-28T01:58:57;10.02;;;6.78;;
21036;SDS011;10677;50.942;4.028;2022-11-28T02:01:26;9.48;;;6.78;;
21036;SDS011;10677;50.942;4.028;2022-11-28T02:03:52;12.18;;;6.60;;
21036;SDS011;10677;50.942;4.028;2022-11-28T02:06:20;11.18;;;6.57;;
21036;SDS011;10677;50.942;4.028;2022-11-28T02:08:49;10.27;;;6.97;;
21036;SDS011;10677;50.942;4.028;2022-11-28T02:17:04;9.48;;;5.95;;
21036;SDS011;10677;50.942;4.028;2022-11-28T02:22:41;11.38;;;6.38;;
21036;SDS011;10677;50.942;4.028;2022-11-28T02:31:30;9.55;;;6.72;;
21036;SDS011;10677;50.942;4.028;2022-11-28T02:34:27;10.18;;;6.32;;
21036;SDS011;10677;50.942;4.028;2022-11-28T02:37:19;11.82;;;6.60;;
21036;SDS011;10677;50.942;4.028;2022-11-28T02:48:26;10.20;;;6.78;;
21036;SDS011;10677;50.942;4.028;2022-11-28T02:51:19;11.95;;;7.20;;
21036;SDS011;10677;50.942;4.028;2022-11-28T02:53:52;10.50;;;7.25;;
21036;SDS011;10677;50.942;4.028;2022-11-28T02:56:19;10.93;;;7.75;;
21036;SDS011;10677;50.942;4.028;2022-11-28T02:58:47;10.95;;;6.80;;
21036;SDS011;10677;50.942;4.028;2022-11-28T03:01:17;12.38;;;8.95;;
21036;SDS011;10677;50.942;4.028;2022-11-28T03:06:26;10.82;;;6.88;;
21036;SDS011;10677;50.942;4.028;2022-11-28T03:14:13;11.15;;;7.50;;
21036;SDS011;10677;50.942;4.028;2022-11-28T03:19:48;10.40;;;6.97;;
21036;SDS011;10677;50.942;4.028;2022-11-28T03:22:43;10.30;;;6.95;;
21036;SDS011;10677;50.942;4.028;2022-11-28T03:27:49;12.20;;;8.18;;
21036;SDS011;10677;50.942;4.028;2022-11-28T03:30:45;11.23;;;7.43;;
21036;SDS011;10677;50.942;4.028;2022-11-28T03:33:12;12.93;;;8.50;;
21036;SDS011;10677;50.942;4.028;2022-11-28T03:35:43;11.07;;;7.35;;
21036;SDS011;10677;50.942;4.028;2022-11-28T03:38:18;10.30;;;7.03;;
21036;SDS011;10677;50.942;4.028;2022-11-28T03:41:03;11.20;;;8.02;;
21036;SDS011;10677;50.942;4.028;2022-11-28T03:43:41;13.43;;;8.93;;
21036;SDS011;10677;50.942;4.028;2022-11-28T03:46:13;13.23;;;8.20;;
21036;SDS011;10677;50.942;4.028;2022-11-28T03:48:44;11.73;;;8.13;;
21036;SDS011;10677;50.942;4.028;2022-11-28T03:54:05;13.48;;;9.27;;
21036;SDS011;10677;50.942;4.028;2022-11-28T03:59:44;15.43;;;10.43;;
21036;SDS011;10677;50.942;4.028;2022-11-28T04:02:10;15.05;;;9.80;;
21036;SDS011;10677;50.942;4.028;2022-11-28T04:04:40;14.85;;;10.40;;
21036;SDS011;10677;50.942;4.028;2022-11-28T04:07:31;16.00;;;11.43;;
21036;SDS011;10677;50.942;4.028;2022-11-28T04:18:26;23.83;;;13.85;;
21036;SDS011;10677;50.942;4.028;2022-11-28T04:21:10;21.98;;;14.23;;
21036;SDS011;10677;50.942;4.028;2022-11-28T04:23:47;22.55;;;14.10;;
21036;SDS011;10677;50.942;4.028;2022-11-28T04:26:34;21.05;;;14.15;;
21036;SDS011;10677;50.942;4.028;2022-11-28T04:29:03;25.13;;;16.88;;
21036;SDS011;10677;50.942;4.028;2022-11-28T04:31:34;28.10;;;17.27;;
21036;SDS011;10677;50.942;4.028;2022-11-28T04:34:03;25.58;;;16.08;;
21036;SDS011;10677;50.942;4.028;2022-11-28T04:36:32;26.73;;;17.50;;
21036;SDS011;10677;50.942;4.028;2022-11-28T04:39:03;27.55;;;16.90;;
21036;SDS011;10677;50.942;4.028;2022-11-28T04:41:40;29.23;;;18.50;;
21036;SDS011;10677;50.942;4.028;2022-11-28T04:44:12;30.77;;;19.20;;
21036;SDS011;10677;50.942;4.028;2022-11-28T04:46:45;30.58;;;17.92;;
21036;SDS011;10677;50.942;4.028;2022-11-28T04:49:15;28.70;;;18.40;;
21036;SDS011;10677;50.942;4.028;2022-11-28T04:51:43;38.08;;;20.73;;
21036;SDS011;10677;50.942;4.028;2022-11-28T04:54:17;33.92;;;20.77;;
21036;SDS011;10677;50.942;4.028;2022-11-28T04:56:49;33.50;;;20.05;;
21036;SDS011;10677;50.942;4.028;2022-11-28T04:59:21;32.95;;;19.00;;
21036;SDS011;10677;50.942;4.028;2022-11-28T05:01:50;34.22;;;20.70;;
21036;SDS011;10677;50.942;4.028;2022-11-28T05:04:17;35.10;;;20.17;;
21036;SDS011;10677;50.942;4.028;2022-11-28T05:06:43;32.75;;;20.33;;
21036;SDS011;10677;50.942;4.028;2022-11-28T05:09:12;37.05;;;20.02;;
21036;SDS011;10677;50.942;4.028;2022-11-28T05:11:39;35.25;;;20.92;;
21036;SDS011;10677;50.942;4.028;2022-11-28T05:14:05;35.28;;;20.80;;
21036;SDS011;10677;50.942;4.028;2022-11-28T05:16:31;35.58;;;19.98;;
21036;SDS011;10677;50.942;4.028;2022-11-28T05:18:56;34.72;;;20.38;;
21036;SDS011;10677;50.942;4.028;2022-11-28T05:21:22;41.40;;;20.75;;
21036;SDS011;10677;50.942;4.028;2022-11-28T05:23:48;38.53;;;22.23;;
21036;SDS011;10677;50.942;4.028;2022-11-28T05:26:18;33.70;;;20.77;;
21036;SDS011;10677;50.942;4.028;2022-11-28T05:28:45;40.50;;;21.58;;
21036;SDS011;10677;50.942;4.028;2022-11-28T05:31:12;38.53;;;22.83;;
21036;SDS011;10677;50.942;4.028;2022-11-28T05:33:39;36.47;;;22.10;;
21036;SDS011;10677;50.942;4.028;2022-11-28T05:36:05;39.92;;;23.35;;
21036;SDS011;10677;50.942;4.028;2022-11-28T05:38:32;41.95;;;23.52;;
21036;SDS011;10677;50.942;4.028;2022-11-28T05:40:59;39.28;;;23.20;;
21036;SDS011;10677;50.942;4.028;2022-11-28T05:43:25;43.40;;;22.33;;
21036;SDS011;10677;50.942;4.028;2022-11-28T05:45:53;45.05;;;24.58;;
21036;SDS011;10677;50.942;4.028;2022-11-28T05:48:19;42.53;;;24.88;;
21036;SDS011;10677;50.942;4.028;2022-11-28T05:50:44;42.90;;;23.50;;
21036;SDS011;10677;50.942;4.028;2022-11-28T05:53:10;44.63;;;24.48;;
21036;SDS011;10677;50.942;4.028;2022-11-28T05:55:37;44.28;;;24.25;;
21036;SDS011;10677;50.942;4.028;2022-11-28T05:58:04;44.10;;;24.08;;
21036;SDS011;10677;50.942;4.028;2022-11-28T06:00:30;42.45;;;23.65;;
21036;SDS011;10677;50.942;4.028;2022-11-28T06:02:56;43.03;;;23.00;;
21036;SDS011;10677;50.942;4.028;2022-11-28T06:05:22;40.15;;;23.45;;
21036;SDS011;10677;50.942;4.028;2022-11-28T06:07:49;38.95;;;21.88;;
21036;SDS011;10677;50.942;4.028;2022-11-28T06:10:14;38.97;;;21.67;;
21036;SDS011;10677;50.942;4.028;2022-11-28T06:12:40;41.13;;;21.92;;
21036;SDS011;10677;50.942;4.028;2022-11-28T06:15:06;36.67;;;21.73;;
21036;SDS011;10677;50.942;4.028;2022-11-28T06:17:32;39.28;;;21.67;;
21036;SDS011;10677;50.942;4.028;2022-11-28T06:19:58;32.72;;;20.83;;
21036;SDS011;10677;50.942;4.028;2022-11-28T06:22:24;34.75;;;20.13;;
21036;SDS011;10677;50.942;4.028;2022-11-28T06:24:49;34.50;;;19.88;;
21036;SDS011;10677;50.942;4.028;2022-11-28T06:27:16;31.45;;;20.08;;
21036;SDS011;10677;50.942;4.028;2022-11-28T06:29:42;29.60;;;18.75;;
21036;SDS011;10677;50.942;4.028;2022-11-28T06:32:07;30.20;;;18.00;;
21036;SDS011;10677;50.942;4.028;2022-11-28T06:34:36;29.02;;;17.45;;
21036;SDS011;10677;50.942;4.028;2022-11-28T06:37:02;28.55;;;18.30;;
21036;SDS011;10677;50.942;4.028;2022-11-28T06:39:27;29.27;;;17.63;;
21036;SDS011;10677;50.942;4.028;2022-11-28T06:41:53;26.27;;;16.52;;
21036;SDS011;10677;50.942;4.028;2022-11-28T06:44:19;29.92;;;17.75;;
21036;SDS011;10677;50.942;4.028;2022-11-28T06:46:44;32.40;;;18.08;;
21036;SDS011;10677;50.942;4.028;2022-11-28T06:49:10;28.15;;;17.50;;
21036;SDS011;10677;50.942;4.028;2022-11-28T06:51:40;28.33;;;17.73;;
21036;SDS011;10677;50.942;4.028;2022-11-28T06:54:07;25.70;;;16.30;;
21036;SDS011;10677;50.942;4.028;2022-11-28T06:56:33;28.02;;;16.77;;
21036;SDS011;10677;50.942;4.028;2022-11-28T06:58:59;29.05;;;17.02;;
21036;SDS011;10677;50.942;4.028;2022-11-28T07:01:26;30.85;;;18.50;;
21036;SDS011;10677;50.942;4.028;2022-11-28T07:03:54;32.15;;;18.60;;
21036;SDS011;10677;50.942;4.028;2022-11-28T07:06:24;34.83;;;19.75;;
21036;SDS011;10677;50.942;4.028;2022-11-28T07:08:51;33.40;;;18.60;;
21036;SDS011;10677;50.942;4.028;2022-11-28T07:13:45;36.38;;;19.30;;
21036;SDS011;10677;50.942;4.028;2022-11-28T07:16:15;35.25;;;19.48;;
21036;SDS011;10677;50.942;4.028;2022-11-28T07:18:43;37.90;;;23.15;;
21036;SDS011;10677;50.942;4.028;2022-11-28T07:21:09;36.10;;;22.95;;
21036;SDS011;10677;50.942;4.028;2022-11-28T07:23:38;34.70;;;19.65;;
21036;SDS011;10677;50.942;4.028;2022-11-28T07:26:07;34.25;;;20.48;;
21036;SDS011;10677;50.942;4.028;2022-11-28T07:28:35;37.22;;;20.67;;
21036;SDS011;10677;50.942;4.028;2022-11-28T07:31:08;35.28;;;20.55;;
21036;SDS011;10677;50.942;4.028;2022-11-28T07:33:40;35.20;;;21.05;;
21036;SDS011;10677;50.942;4.028;2022-11-28T07:36:11;37.08;;;22.67;;
21036;SDS011;10677;50.942;4.028;2022-11-28T07:38:39;38.05;;;21.50;;
21036;SDS011;10677;50.942;4.028;2022-11-28T07:41:05;36.92;;;21.13;;
21036;SDS011;10677;50.942;4.028;2022-11-28T07:43:35;40.40;;;22.20;;
21036;SDS011;10677;50.942;4.028;2022-11-28T07:46:08;39.22;;;22.17;;
21036;SDS011;10677;50.942;4.028;2022-11-28T07:48:35;39.85;;;21.70;;
21036;SDS011;10677;50.942;4.028;2022-11-28T07:51:14;38.40;;;22.60;;
21036;SDS011;10677;50.942;4.028;2022-11-28T07:53:47;37.67;;;23.00;;
21036;SDS011;10677;50.942;4.028;2022-11-28T07:56:14;38.25;;;22.20;;
21036;SDS011;10677;50.942;4.028;2022-11-28T07:58:45;40.75;;;22.80;;
21036;SDS011;10677;50.942;4.028;2022-11-28T08:01:26;39.85;;;23.00;;
21036;SDS011;10677;50.942;4.028;2022-11-28T08:03:53;43.88;;;21.67;;
21036;SDS011;10677;50.942;4.028;2022-11-28T08:06:20;35.20;;;22.05;;
21036;SDS011;10677;50.942;4.028;2022-11-28T08:08:49;38.03;;;21.98;;
21036;SDS011;10677;50.942;4.028;2022-11-28T08:11:17;44.10;;;22.10;;
21036;SDS011;10677;50.942;4.028;2022-11-28T08:13:44;38.00;;;22.42;;
21036;SDS011;10677;50.942;4.028;2022-11-28T08:16:14;41.50;;;23.13;;
21036;SDS011;10677;50.942;4.028;2022-11-28T08:18:42;41.50;;;23.13;;
21036;SDS011;10677;50.942;4.028;2022-11-28T08:21:19;38.53;;;21.52;;
21036;SDS011;10677;50.942;4.028;2022-11-28T08:24:07;41.15;;;22.73;;
21036;SDS011;10677;50.942;4.028;2022-11-28T08:26:39;44.08;;;23.00;;
21036;SDS011;10677;50.942;4.028;2022-11-28T08:29:16;39.25;;;21.60;;
21036;SDS011;10677;50.942;4.028;2022-11-28T08:31:42;40.25;;;22.92;;
21036;SDS011;10677;50.942;4.028;2022-11-28T08:34:08;37.42;;;21.27;;
21036;SDS011;10677;50.942;4.028;2022-11-28T08:36:36;40.78;;;22.15;;
21036;SDS011;10677;50.942;4.028;2022-11-28T08:39:03;39.22;;;22.30;;
21036;SDS011;10677;50.942;4.028;2022-11-28T08:41:29;38.78;;;20.90;;
21036;SDS011;10677;50.942;4.028;2022-11-28T08:43:55;42.28;;;22.10;;
21036;SDS011;10677;50.942;4.028;2022-11-28T08:46:21;41.63;;;21.17;;
21036;SDS011;10677;50.942;4.028;2022-11-28T08:48:50;38.05;;;21.58;;
21036;SDS011;10677;50.942;4.028;2022-11-28T08:51:26;39.03;;;21.13;;
21036;SDS011;10677;50.942;4.028;2022-11-28T08:53:56;32.78;;;19.00;;
21036;SDS011;10677;50.942;4.028;2022-11-28T08:56:26;44.13;;;19.58;;
21036;SDS011;10677;50.942;4.028;2022-11-28T08:58:58;40.33;;;21.30;;
21036;SDS011;10677;50.942;4.028;2022-11-28T09:01:37;40.30;;;19.95;;
21036;SDS011;10677;50.942;4.028;2022-11-28T09:04:17;36.58;;;19.60;;
21036;SDS011;10677;50.942;4.028;2022-11-28T09:06:54;35.58;;;19.13;;
21036;SDS011;10677;50.942;4.028;2022-11-28T09:09:19;43.03;;;18.65;;
21036;SDS011;10677;50.942;4.028;2022-11-28T09:11:45;39.72;;;19.17;;
21036;SDS011;10677;50.942;4.028;2022-11-28T09:14:11;34.53;;;18.88;;
21036;SDS011;10677;50.942;4.028;2022-11-28T09:16:38;32.72;;;18.30;;
21036;SDS011;10677;50.942;4.028;2022-11-28T09:19:03;33.72;;;17.65;;
21036;SDS011;10677;50.942;4.028;2022-11-28T09:21:31;35.55;;;17.55;;
21036;SDS011;10677;50.942;4.028;2022-11-28T09:23:57;40.33;;;18.25;;
21036;SDS011;10677;50.942;4.028;2022-11-28T09:26:23;33.45;;;18.10;;
21036;SDS011;10677;50.942;4.028;2022-11-28T09:28:50;31.83;;;16.90;;
21036;SDS011;10677;50.942;4.028;2022-11-28T09:31:16;40.50;;;16.98;;
21036;SDS011;10677;50.942;4.028;2022-11-28T09:33:43;36.35;;;17.45;;
21036;SDS011;10677;50.942;4.028;2022-11-28T09:36:10;33.72;;;17.83;;
21036;SDS011;10677;50.942;4.028;2022-11-28T09:38:38;30.13;;;17.60;;
21036;SDS011;10677;50.942;4.028;2022-11-28T09:41:18;31.73;;;17.33;;
21036;SDS011;10677;50.942;4.028;2022-11-28T09:43:56;31.92;;;17.35;;
21036;SDS011;10677;50.942;4.028;2022-11-28T09:46:31;32.70;;;17.23;;
21036;SDS011;10677;50.942;4.028;2022-11-28T09:49:01;34.67;;;17.17;;
21036;SDS011;10677;50.942;4.028;2022-11-28T09:51:35;30.35;;;16.60;;
21036;SDS011;10677;50.942;4.028;2022-11-28T09:54:18;31.02;;;16.00;;
21036;SDS011;10677;50.942;4.028;2022-11-28T09:57:11;33.42;;;17.02;;
21036;SDS011;10677;50.942;4.028;2022-11-28T09:59:45;36.10;;;17.77;;
21036;SDS011;10677;50.942;4.028;2022-11-28T10:16:09;35.80;;;17.55;;
21036;SDS011;10677;50.942;4.028;2022-11-28T10:18:58;32.55;;;17.60;;
21036;SDS011;10677;50.942;4.028;2022-11-28T10:24:12;31.33;;;17.55;;
21036;SDS011;10677;50.942;4.028;2022-11-28T10:26:46;34.15;;;17.95;;
21036;SDS011;10677;50.942;4.028;2022-11-28T10:29:22;31.40;;;18.15;;
21036;SDS011;10677;50.942;4.028;2022-11-28T10:31:54;39.67;;;18.40;;
21036;SDS011;10677;50.942;4.028;2022-11-28T10:34:34;38.00;;;18.70;;
21036;SDS011;10677;50.942;4.028;2022-11-28T10:37:26;32.40;;;19.30;;
21036;SDS011;10677;50.942;4.028;2022-11-28T10:39:52;30.55;;;17.25;;
21036;SDS011;10677;50.942;4.028;2022-11-28T10:56:19;34.35;;;18.80;;
21036;SDS011;10677;50.942;4.028;2022-11-28T10:58:59;61.65;;;33.28;;
21036;SDS011;10677;50.942;4.028;2022-11-28T11:01:36;38.13;;;20.15;;
21036;SDS011;10677;50.942;4.028;2022-11-28T11:04:04;39.42;;;19.42;;
21036;SDS011;10677;50.942;4.028;2022-11-28T11:06:30;35.97;;;20.08;;
21036;SDS011;10677;50.942;4.028;2022-11-28T11:08:55;47.03;;;21.45;;
21036;SDS011;10677;50.942;4.028;2022-11-28T11:13:55;44.42;;;20.65;;
21036;SDS011;10677;50.942;4.028;2022-11-28T11:16:45;42.05;;;20.65;;
21036;SDS011;10677;50.942;4.028;2022-11-28T11:19:34;40.65;;;20.90;;
21036;SDS011;10677;50.942;4.028;2022-11-28T11:24:43;39.58;;;21.55;;
21036;SDS011;10677;50.942;4.028;2022-11-28T11:27:28;46.22;;;21.77;;
21036;SDS011;10677;50.942;4.028;2022-11-28T11:29:54;50.83;;;23.58;;
21036;SDS011;10677;50.942;4.028;2022-11-28T11:32:26;44.47;;;21.40;;
21036;SDS011;10677;50.942;4.028;2022-11-28T11:34:54;43.33;;;22.13;;
21036;SDS011;10677;50.942;4.028;2022-11-28T11:39:50;46.28;;;22.10;;
21036;SDS011;10677;50.942;4.028;2022-11-28T11:42:20;48.85;;;22.10;;
21036;SDS011;10677;50.942;4.028;2022-11-28T11:44:50;39.55;;;20.05;;
21036;SDS011;10677;50.942;4.028;2022-11-28T11:47:16;42.25;;;20.65;;
21036;SDS011;10677;50.942;4.028;2022-11-28T11:49:48;38.90;;;19.92;;
21036;SDS011;10677;50.942;4.028;2022-11-28T11:52:32;42.88;;;19.27;;
21036;SDS011;10677;50.942;4.028;2022-11-28T11:55:03;45.58;;;18.88;;
21036;SDS011;10677;50.942;4.028;2022-11-28T11:57:41;40.88;;;19.35;;
21036;SDS011;10677;50.942;4.028;2022-11-28T12:00:17;34.03;;;17.60;;
21036;SDS011;10677;50.942;4.028;2022-11-28T12:05:19;38.38;;;18.73;;
21036;SDS011;10677;50.942;4.028;2022-11-28T12:07:53;36.95;;;18.13;;
21036;SDS011;10677;50.942;4.028;2022-11-28T12:10:21;34.85;;;15.90;;
21036;SDS011;10677;50.942;4.028;2022-11-28T12:12:50;45.95;;;18.80;;
21036;SDS011;10677;50.942;4.028;2022-11-28T12:15:19;33.58;;;16.13;;
21036;SDS011;10677;50.942;4.028;2022-11-28T12:26:38;28.35;;;14.10;;
21036;SDS011;10677;50.942;4.028;2022-11-28T12:37:47;26.17;;;12.57;;
21036;SDS011;10677;50.942;4.028;2022-11-28T12:46:00;29.58;;;13.75;;
21036;SDS011;10677;50.942;4.028;2022-11-28T12:57:01;35.67;;;15.23;;
21036;SDS011;10677;50.942;4.028;2022-11-28T12:59:53;34.78;;;15.85;;
21036;SDS011;10677;50.942;4.028;2022-11-28T13:19:11;31.27;;;15.20;;
21036;SDS011;10677;50.942;4.028;2022-11-28T13:21:52;39.60;;;18.08;;
21036;SDS011;10677;50.942;4.028;2022-11-28T13:24:39;39.22;;;16.80;;
21036;SDS011;10677;50.942;4.028;2022-11-28T13:30:38;36.15;;;16.65;;
21036;SDS011;10677;50.942;4.028;2022-11-28T13:35:54;41.55;;;17.30;;
21036;SDS011;10677;50.942;4.028;2022-11-28T13:38:28;32.17;;;16.15;;
21036;SDS011;10677;50.942;4.028;2022-11-28T13:44:00;43.40;;;16.48;;
21036;SDS011;10677;50.942;4.028;2022-11-28T13:46:42;38.60;;;16.67;;
21036;SDS011;10677;50.942;4.028;2022-11-28T13:49:17;38.13;;;17.77;;
21036;SDS011;10677;50.942;4.028;2022-11-28T13:54:53;42.05;;;16.20;;
21036;SDS011;10677;50.942;4.028;2022-11-28T14:00:00;46.72;;;16.90;;
21036;SDS011;10677;50.942;4.028;2022-11-28T14:05:00;38.88;;;17.38;;
21036;SDS011;10677;50.942;4.028;2022-11-28T14:07:28;43.25;;;17.02;;
21036;SDS011;10677;50.942;4.028;2022-11-28T14:20:58;39.05;;;16.20;;
21036;SDS011;10677;50.942;4.028;2022-11-28T14:23:41;40.25;;;15.57;;
21036;SDS011;10677;50.942;4.028;2022-11-28T14:26:17;39.17;;;13.60;;
21036;SDS011;10677;50.942;4.028;2022-11-28T14:28:58;34.17;;;16.20;;
21036;SDS011;10677;50.942;4.028;2022-11-28T14:31:32;28.85;;;13.23;;
21036;SDS011;10677;50.942;4.028;2022-11-28T14:34:04;29.17;;;12.80;;
21036;SDS011;10677;50.942;4.028;2022-11-28T14:39:48;30.00;;;12.77;;
21036;SDS011;10677;50.942;4.028;2022-11-28T14:47:29;29.55;;;11.80;;
21036;SDS011;10677;50.942;4.028;2022-11-28T14:52:36;29.48;;;12.88;;
21036;SDS011;10677;50.942;4.028;2022-11-28T14:57:32;21.67;;;11.40;;
21036;SDS011;10677;50.942;4.028;2022-11-28T15:00:04;32.63;;;12.52;;
21036;SDS011;10677;50.942;4.028;2022-11-28T15:02:42;28.17;;;12.63;;
21036;SDS011;10677;50.942;4.028;2022-11-28T15:16:13;26.73;;;11.75;;
21036;SDS011;10677;50.942;4.028;2022-11-28T15:19:03;29.48;;;13.60;;
21036;SDS011;10677;50.942;4.028;2022-11-28T15:21:47;31.08;;;12.00;;
21036;SDS011;10677;50.942;4.028;2022-11-28T15:24:24;30.58;;;12.32;;
21036;SDS011;10677;50.942;4.028;2022-11-28T15:26:54;23.55;;;12.57;;
21036;SDS011;10677;50.942;4.028;2022-11-28T15:29:23;31.08;;;11.30;;
21036;SDS011;10677;50.942;4.028;2022-11-28T15:31:53;25.95;;;11.88;;
21036;SDS011;10677;50.942;4.028;2022-11-28T15:34:24;29.50;;;10.65;;
21036;SDS011;10677;50.942;4.028;2022-11-28T15:36:51;31.92;;;12.45;;
21036;SDS011;10677;50.942;4.028;2022-11-28T15:39:23;26.65;;;12.18;;
21036;SDS011;10677;50.942;4.028;2022-11-28T15:41:53;30.90;;;11.63;;
21036;SDS011;10677;50.942;4.028;2022-11-28T15:44:21;25.25;;;10.95;;
21036;SDS011;10677;50.942;4.028;2022-11-28T15:46:47;28.17;;;11.95;;
21036;SDS011;10677;50.942;4.028;2022-11-28T15:49:23;28.70;;;13.35;;
21036;SDS011;10677;50.942;4.028;2022-11-28T15:51:54;29.90;;;12.45;;
21036;SDS011;10677;50.942;4.028;2022-11-28T15:56:58;33.65;;;12.40;;
21036;SDS011;10677;50.942;4.028;2022-11-28T15:59:24;31.63;;;13.10;;
21036;SDS011;10677;50.942;4.028;2022-11-28T16:01:51;33.00;;;13.93;;
21036;SDS011;10677;50.942;4.028;2022-11-28T16:04:19;31.48;;;13.90;;
21036;SDS011;10677;50.942;4.028;2022-11-28T16:06:49;35.03;;;13.15;;
21036;SDS011;10677;50.942;4.028;2022-11-28T16:11:43;25.38;;;13.32;;
21036;SDS011;10677;50.942;4.028;2022-11-28T16:14:13;29.98;;;14.70;;
21036;SDS011;10677;50.942;4.028;2022-11-28T16:16:44;33.08;;;14.77;;
21036;SDS011;10677;50.942;4.028;2022-11-28T16:19:17;42.83;;;14.35;;
21036;SDS011;10677;50.942;4.028;2022-11-28T16:22:00;38.33;;;18.40;;
21036;SDS011;10677;50.942;4.028;2022-11-28T16:24:32;35.50;;;14.75;;
21036;SDS011;10677;50.942;4.028;2022-11-28T16:27:21;31.05;;;14.10;;
21036;SDS011;10677;50.942;4.028;2022-11-28T16:29:55;38.58;;;17.27;;
21036;SDS011;10677;50.942;4.028;2022-11-28T16:32:31;33.08;;;15.73;;
21036;SDS011;10677;50.942;4.028;2022-11-28T16:35:02;35.55;;;17.70;;
21036;SDS011;10677;50.942;4.028;2022-11-28T16:37:29;33.55;;;17.70;;
21036;SDS011;10677;50.942;4.028;2022-11-28T16:42:37;39.75;;;17.48;;
21036;SDS011;10677;50.942;4.028;2022-11-28T16:45:10;32.50;;;16.73;;
21036;SDS011;10677;50.942;4.028;2022-11-28T16:47:41;31.88;;;16.30;;
21036;SDS011;10677;50.942;4.028;2022-11-28T16:52:46;37.55;;;19.83;;
21036;SDS011;10677;50.942;4.028;2022-11-28T16:57:53;38.15;;;18.52;;
21036;SDS011;10677;50.942;4.028;2022-11-28T17:00:41;42.63;;;18.38;;
21036;SDS011;10677;50.942;4.028;2022-11-28T17:06:11;44.05;;;21.58;;
21036;SDS011;10677;50.942;4.028;2022-11-28T17:08:42;38.70;;;19.65;;
21036;SDS011;10677;50.942;4.028;2022-11-28T17:11:08;33.97;;;17.80;;
21036;SDS011;10677;50.942;4.028;2022-11-28T17:13:34;42.85;;;18.85;;
21036;SDS011;10677;50.942;4.028;2022-11-28T17:16:00;31.33;;;17.40;;
21036;SDS011;10677;50.942;4.028;2022-11-28T17:18:25;52.67;;;19.88;;
21036;SDS011;10677;50.942;4.028;2022-11-28T17:20:51;41.80;;;18.48;;
21036;SDS011;10677;50.942;4.028;2022-11-28T17:23:17;40.03;;;18.42;;
21036;SDS011;10677;50.942;4.028;2022-11-28T17:25:49;36.65;;;20.17;;
21036;SDS011;10677;50.942;4.028;2022-11-28T17:28:15;34.25;;;17.13;;
21036;SDS011;10677;50.942;4.028;2022-11-28T17:30:40;40.03;;;17.13;;
21036;SDS011;10677;50.942;4.028;2022-11-28T17:33:06;47.15;;;19.02;;
21036;SDS011;10677;50.942;4.028;2022-11-28T17:35:34;40.50;;;19.00;;
21036;SDS011;10677;50.942;4.028;2022-11-28T17:38:05;38.33;;;18.33;;
21036;SDS011;10677;50.942;4.028;2022-11-28T17:40:30;41.00;;;17.75;;
21036;SDS011;10677;50.942;4.028;2022-11-28T17:43:00;38.95;;;16.95;;
21036;SDS011;10677;50.942;4.028;2022-11-28T17:45:32;40.88;;;17.58;;
21036;SDS011;10677;50.942;4.028;2022-11-28T17:47:59;38.15;;;16.70;;
21036;SDS011;10677;50.942;4.028;2022-11-28T17:50:25;48.47;;;19.65;;
21036;SDS011;10677;50.942;4.028;2022-11-28T17:52:50;74.15;;;40.58;;
21036;SDS011;10677;50.942;4.028;2022-11-28T17:55:16;41.70;;;17.92;;
21036;SDS011;10677;50.942;4.028;2022-11-28T17:57:44;39.13;;;17.27;;
21036;SDS011;10677;50.942;4.028;2022-11-28T18:00:10;45.40;;;16.77;;
21036;SDS011;10677;50.942;4.028;2022-11-28T18:02:38;44.15;;;19.30;;
21036;SDS011;10677;50.942;4.028;2022-11-28T18:05:04;42.33;;;18.10;;
21036;SDS011;10677;50.942;4.028;2022-11-28T18:07:30;48.00;;;18.63;;
21036;SDS011;10677;50.942;4.028;2022-11-28T18:09:55;48.97;;;19.13;;
21036;SDS011;10677;50.942;4.028;2022-11-28T18:12:21;49.83;;;19.00;;
21036;SDS011;10677;50.942;4.028;2022-11-28T18:14:47;43.30;;;18.90;;
21036;SDS011;10677;50.942;4.028;2022-11-28T18:17:12;43.60;;;18.98;;
21036;SDS011;10677;50.942;4.028;2022-11-28T18:19:38;51.20;;;22.50;;